sensor_id;sensor_type;location;lat;lon;timestamp;P1;durP1;ratioP1;P2;durP2;ratioP2
10090;SDS011;5084;51.386;6.778;2023-01-29T00:01:09;19.50;;;14.80;;
10090;SDS011;5084;51.386;6.778;2023-01-29T00:03:35;19.90;;;16.63;;
10090;SDS011;5084;51.386;6.778;2023-01-29T00:06:05;21.57;;;16.27;;
10090;SDS011;5084;51.386;6.778;2023-01-29T00:08:32;21.03;;;16.40;;
10090;SDS011;5084;51.386;6.778;2023-01-29T00:10:59;20.13;;;16.30;;
10090;SDS011;5084;51.386;6.778;2023-01-29T00:13:25;19.23;;;16.00;;
10090;SDS011;5084;51.386;6.778;2023-01-29T00:15:52;21.60;;;16.17;;
10090;SDS011;5084;51.386;6.778;2023-01-29T00:18:19;21.30;;;15.97;;
10090;SDS011;5084;51.386;6.778;2023-01-29T00:20:45;21.37;;;15.70;;
10090;SDS011;5084;51.386;6.778;2023-01-29T00:23:11;22.43;;;16.57;;
10090;SDS011;5084;51.386;6.778;2023-01-29T00:25:37;20.83;;;15.70;;
10090;SDS011;5084;51.386;6.778;2023-01-29T00:28:03;22.23;;;16.47;;
10090;SDS011;5084;51.386;6.778;2023-01-29T00:30:29;22.97;;;16.70;;
10090;SDS011;5084;51.386;6.778;2023-01-29T00:32:56;21.87;;;16.20;;
10090;SDS011;5084;51.386;6.778;2023-01-29T00:35:22;21.97;;;15.70;;
10090;SDS011;5084;51.386;6.778;2023-01-29T00:37:48;21.60;;;16.60;;
10090;SDS011;5084;51.386;6.778;2023-01-29T00:40:14;23.13;;;15.80;;
10090;SDS011;5084;51.386;6.778;2023-01-29T00:42:42;22.53;;;16.90;;
10090;SDS011;5084;51.386;6.778;2023-01-29T00:45:38;21.07;;;16.63;;
10090;SDS011;5084;51.386;6.778;2023-01-29T00:48:04;22.47;;;17.37;;
10090;SDS011;5084;51.386;6.778;2023-01-29T00:50:30;19.47;;;15.30;;
10090;SDS011;5084;51.386;6.778;2023-01-29T00:52:56;24.67;;;18.00;;
10090;SDS011;5084;51.386;6.778;2023-01-29T00:55:23;20.17;;;16.20;;
10090;SDS011;5084;51.386;6.778;2023-01-29T00:57:49;21.93;;;16.10;;
10090;SDS011;5084;51.386;6.778;2023-01-29T01:00:16;20.83;;;15.50;;
10090;SDS011;5084;51.386;6.778;2023-01-29T01:02:43;20.50;;;16.37;;
10090;SDS011;5084;51.386;6.778;2023-01-29T01:05:28;24.63;;;16.70;;
10090;SDS011;5084;51.386;6.778;2023-01-29T01:07:55;22.47;;;16.57;;
10090;SDS011;5084;51.386;6.778;2023-01-29T01:10:22;21.47;;;16.20;;
10090;SDS011;5084;51.386;6.778;2023-01-29T01:12:49;20.47;;;15.73;;
10090;SDS011;5084;51.386;6.778;2023-01-29T01:15:16;21.43;;;16.97;;
10090;SDS011;5084;51.386;6.778;2023-01-29T01:17:43;18.93;;;15.77;;
10090;SDS011;5084;51.386;6.778;2023-01-29T01:20:09;20.63;;;15.60;;
10090;SDS011;5084;51.386;6.778;2023-01-29T01:22:35;21.70;;;16.20;;
10090;SDS011;5084;51.386;6.778;2023-01-29T01:25:01;22.27;;;17.37;;
10090;SDS011;5084;51.386;6.778;2023-01-29T01:27:27;21.80;;;17.37;;
10090;SDS011;5084;51.386;6.778;2023-01-29T01:29:54;20.87;;;16.37;;
10090;SDS011;5084;51.386;6.778;2023-01-29T01:32:20;21.30;;;15.80;;
10090;SDS011;5084;51.386;6.778;2023-01-29T01:34:46;22.27;;;15.57;;
10090;SDS011;5084;51.386;6.778;2023-01-29T01:37:12;21.83;;;16.80;;
10090;SDS011;5084;51.386;6.778;2023-01-29T01:39:38;24.83;;;17.57;;
10090;SDS011;5084;51.386;6.778;2023-01-29T01:42:05;22.20;;;17.13;;
10090;SDS011;5084;51.386;6.778;2023-01-29T01:47:39;19.43;;;15.57;;
10090;SDS011;5084;51.386;6.778;2023-01-29T01:50:13;23.03;;;15.70;;
10090;SDS011;5084;51.386;6.778;2023-01-29T01:52:41;23.67;;;16.90;;
10090;SDS011;5084;51.386;6.778;2023-01-29T01:55:08;21.97;;;15.77;;
10090;SDS011;5084;51.386;6.778;2023-01-29T01:57:35;23.13;;;17.53;;
10090;SDS011;5084;51.386;6.778;2023-01-29T02:00:04;23.17;;;17.13;;
10090;SDS011;5084;51.386;6.778;2023-01-29T02:02:36;20.93;;;16.93;;
10090;SDS011;5084;51.386;6.778;2023-01-29T02:05:21;23.50;;;17.90;;
10090;SDS011;5084;51.386;6.778;2023-01-29T02:08:06;22.80;;;16.73;;
10090;SDS011;5084;51.386;6.778;2023-01-29T02:10:52;25.07;;;17.20;;
10090;SDS011;5084;51.386;6.778;2023-01-29T02:13:18;23.97;;;16.90;;
10090;SDS011;5084;51.386;6.778;2023-01-29T02:15:45;24.87;;;17.47;;
10090;SDS011;5084;51.386;6.778;2023-01-29T02:18:13;22.83;;;17.53;;
10090;SDS011;5084;51.386;6.778;2023-01-29T02:20:40;22.00;;;17.23;;
10090;SDS011;5084;51.386;6.778;2023-01-29T02:28:42;24.87;;;17.87;;
10090;SDS011;5084;51.386;6.778;2023-01-29T02:36:25;24.50;;;18.03;;
10090;SDS011;5084;51.386;6.778;2023-01-29T02:39:00;22.80;;;16.17;;
10090;SDS011;5084;51.386;6.778;2023-01-29T02:41:31;25.07;;;17.13;;
10090;SDS011;5084;51.386;6.778;2023-01-29T02:44:10;23.37;;;16.60;;
10090;SDS011;5084;51.386;6.778;2023-01-29T02:46:51;22.87;;;17.23;;
10090;SDS011;5084;51.386;6.778;2023-01-29T02:49:23;21.83;;;16.77;;
10090;SDS011;5084;51.386;6.778;2023-01-29T02:54:23;23.53;;;17.37;;
10090;SDS011;5084;51.386;6.778;2023-01-29T02:56:56;23.17;;;17.03;;
10090;SDS011;5084;51.386;6.778;2023-01-29T03:02:27;22.17;;;16.33;;
10090;SDS011;5084;51.386;6.778;2023-01-29T03:04:56;23.80;;;16.90;;
10090;SDS011;5084;51.386;6.778;2023-01-29T03:07:24;23.50;;;17.17;;
10090;SDS011;5084;51.386;6.778;2023-01-29T03:10:32;21.67;;;17.47;;
10090;SDS011;5084;51.386;6.778;2023-01-29T03:13:56;24.93;;;16.93;;
10090;SDS011;5084;51.386;6.778;2023-01-29T03:16:02;23.07;;;17.33;;
10090;SDS011;5084;51.386;6.778;2023-01-29T03:18:31;22.20;;;16.83;;
10090;SDS011;5084;51.386;6.778;2023-01-29T03:21:00;23.13;;;17.63;;
10090;SDS011;5084;51.386;6.778;2023-01-29T03:23:28;22.60;;;16.33;;
10090;SDS011;5084;51.386;6.778;2023-01-29T03:26:15;23.50;;;17.03;;
10090;SDS011;5084;51.386;6.778;2023-01-29T03:29:02;23.93;;;17.20;;
10090;SDS011;5084;51.386;6.778;2023-01-29T03:31:47;22.87;;;16.50;;
10090;SDS011;5084;51.386;6.778;2023-01-29T03:34:51;24.10;;;16.87;;
10090;SDS011;5084;51.386;6.778;2023-01-29T03:37:27;22.13;;;15.30;;
10090;SDS011;5084;51.386;6.778;2023-01-29T03:39:54;23.63;;;17.20;;
10090;SDS011;5084;51.386;6.778;2023-01-29T03:42:28;23.83;;;17.50;;
10090;SDS011;5084;51.386;6.778;2023-01-29T03:45:05;28.20;;;18.33;;
10090;SDS011;5084;51.386;6.778;2023-01-29T03:50:20;23.50;;;17.10;;
10090;SDS011;5084;51.386;6.778;2023-01-29T03:52:58;24.00;;;17.33;;
10090;SDS011;5084;51.386;6.778;2023-01-29T04:00:50;24.67;;;18.03;;
10090;SDS011;5084;51.386;6.778;2023-01-29T04:03:19;24.67;;;16.90;;
10090;SDS011;5084;51.386;6.778;2023-01-29T04:05:53;22.13;;;16.90;;
10090;SDS011;5084;51.386;6.778;2023-01-29T04:08:29;22.13;;;16.60;;
10090;SDS011;5084;51.386;6.778;2023-01-29T04:10:58;25.67;;;16.07;;
10090;SDS011;5084;51.386;6.778;2023-01-29T04:13:24;23.47;;;16.90;;
10090;SDS011;5084;51.386;6.778;2023-01-29T04:15:53;24.30;;;18.07;;
10090;SDS011;5084;51.386;6.778;2023-01-29T04:18:20;25.37;;;18.50;;
10090;SDS011;5084;51.386;6.778;2023-01-29T04:20:46;26.67;;;17.83;;
10090;SDS011;5084;51.386;6.778;2023-01-29T04:23:23;21.90;;;16.90;;
10090;SDS011;5084;51.386;6.778;2023-01-29T04:28:49;25.03;;;17.40;;
10090;SDS011;5084;51.386;6.778;2023-01-29T04:31:19;23.33;;;17.80;;
10090;SDS011;5084;51.386;6.778;2023-01-29T04:33:53;24.10;;;16.87;;
10090;SDS011;5084;51.386;6.778;2023-01-29T04:36:35;23.07;;;16.20;;
10090;SDS011;5084;51.386;6.778;2023-01-29T04:44:46;24.00;;;17.43;;
10090;SDS011;5084;51.386;6.778;2023-01-29T04:52:14;26.43;;;18.60;;
10090;SDS011;5084;51.386;6.778;2023-01-29T04:59:59;23.60;;;17.27;;
10090;SDS011;5084;51.386;6.778;2023-01-29T05:02:28;25.70;;;17.43;;
10090;SDS011;5084;51.386;6.778;2023-01-29T05:04:55;24.60;;;18.33;;
10090;SDS011;5084;51.386;6.778;2023-01-29T05:07:23;26.23;;;16.87;;
10090;SDS011;5084;51.386;6.778;2023-01-29T05:09:50;24.53;;;17.60;;
10090;SDS011;5084;51.386;6.778;2023-01-29T05:12:16;23.90;;;17.60;;
10090;SDS011;5084;51.386;6.778;2023-01-29T05:14:43;25.00;;;18.27;;
10090;SDS011;5084;51.386;6.778;2023-01-29T05:17:17;22.27;;;15.93;;
10090;SDS011;5084;51.386;6.778;2023-01-29T05:19:44;23.03;;;16.73;;
10090;SDS011;5084;51.386;6.778;2023-01-29T05:22:11;25.27;;;17.30;;
10090;SDS011;5084;51.386;6.778;2023-01-29T05:24:38;22.83;;;16.33;;
10090;SDS011;5084;51.386;6.778;2023-01-29T05:27:04;25.67;;;18.50;;
10090;SDS011;5084;51.386;6.778;2023-01-29T05:29:49;22.23;;;17.27;;
10090;SDS011;5084;51.386;6.778;2023-01-29T05:32:15;22.13;;;16.43;;
10090;SDS011;5084;51.386;6.778;2023-01-29T05:34:41;21.50;;;16.90;;
10090;SDS011;5084;51.386;6.778;2023-01-29T05:37:25;22.63;;;16.60;;
10090;SDS011;5084;51.386;6.778;2023-01-29T05:39:51;22.83;;;16.63;;
10090;SDS011;5084;51.386;6.778;2023-01-29T05:42:17;24.90;;;17.07;;
10090;SDS011;5084;51.386;6.778;2023-01-29T05:44:43;23.80;;;16.07;;
10090;SDS011;5084;51.386;6.778;2023-01-29T05:47:09;23.37;;;17.43;;
10090;SDS011;5084;51.386;6.778;2023-01-29T05:49:36;25.47;;;17.07;;
10090;SDS011;5084;51.386;6.778;2023-01-29T05:52:02;22.70;;;17.00;;
10090;SDS011;5084;51.386;6.778;2023-01-29T05:54:28;24.20;;;16.00;;
10090;SDS011;5084;51.386;6.778;2023-01-29T05:56:54;21.60;;;16.47;;
10090;SDS011;5084;51.386;6.778;2023-01-29T05:59:20;23.57;;;18.10;;
10090;SDS011;5084;51.386;6.778;2023-01-29T06:01:46;23.57;;;16.90;;
10090;SDS011;5084;51.386;6.778;2023-01-29T06:04:12;23.03;;;17.37;;
10090;SDS011;5084;51.386;6.778;2023-01-29T06:06:38;24.97;;;16.97;;
10090;SDS011;5084;51.386;6.778;2023-01-29T06:09:04;22.63;;;16.63;;
10090;SDS011;5084;51.386;6.778;2023-01-29T06:11:30;23.37;;;17.07;;
10090;SDS011;5084;51.386;6.778;2023-01-29T06:13:56;23.37;;;17.20;;
10090;SDS011;5084;51.386;6.778;2023-01-29T06:16:22;25.97;;;17.73;;
10090;SDS011;5084;51.386;6.778;2023-01-29T06:18:48;25.40;;;17.47;;
10090;SDS011;5084;51.386;6.778;2023-01-29T06:21:14;23.90;;;17.37;;
10090;SDS011;5084;51.386;6.778;2023-01-29T06:23:41;24.17;;;17.73;;
10090;SDS011;5084;51.386;6.778;2023-01-29T06:26:08;23.83;;;16.27;;
10090;SDS011;5084;51.386;6.778;2023-01-29T06:28:35;21.80;;;16.47;;
10090;SDS011;5084;51.386;6.778;2023-01-29T06:31:02;23.17;;;15.97;;
10090;SDS011;5084;51.386;6.778;2023-01-29T06:33:28;22.83;;;17.27;;
10090;SDS011;5084;51.386;6.778;2023-01-29T06:36:01;22.73;;;17.27;;
10090;SDS011;5084;51.386;6.778;2023-01-29T06:38:31;22.53;;;16.57;;
10090;SDS011;5084;51.386;6.778;2023-01-29T06:40:57;24.10;;;16.33;;
10090;SDS011;5084;51.386;6.778;2023-01-29T06:43:23;24.70;;;16.87;;
10090;SDS011;5084;51.386;6.778;2023-01-29T06:45:53;23.40;;;15.97;;
10090;SDS011;5084;51.386;6.778;2023-01-29T06:48:20;22.73;;;16.10;;
10090;SDS011;5084;51.386;6.778;2023-01-29T06:50:46;25.07;;;17.07;;
10090;SDS011;5084;51.386;6.778;2023-01-29T06:53:16;22.90;;;15.57;;
10090;SDS011;5084;51.386;6.778;2023-01-29T06:55:43;22.07;;;16.43;;
10090;SDS011;5084;51.386;6.778;2023-01-29T06:58:10;27.27;;;17.57;;
10090;SDS011;5084;51.386;6.778;2023-01-29T07:00:36;23.13;;;15.63;;
10090;SDS011;5084;51.386;6.778;2023-01-29T07:03:03;22.00;;;16.33;;
10090;SDS011;5084;51.386;6.778;2023-01-29T07:05:30;22.20;;;16.87;;
10090;SDS011;5084;51.386;6.778;2023-01-29T07:07:56;21.80;;;16.50;;
10090;SDS011;5084;51.386;6.778;2023-01-29T07:10:22;24.20;;;17.03;;
10090;SDS011;5084;51.386;6.778;2023-01-29T07:12:48;23.30;;;16.30;;
10090;SDS011;5084;51.386;6.778;2023-01-29T07:15:14;22.43;;;17.03;;
10090;SDS011;5084;51.386;6.778;2023-01-29T07:17:58;25.30;;;17.47;;
10090;SDS011;5084;51.386;6.778;2023-01-29T07:20:28;23.57;;;16.67;;
10090;SDS011;5084;51.386;6.778;2023-01-29T07:22:57;23.80;;;16.83;;
10090;SDS011;5084;51.386;6.778;2023-01-29T07:25:24;23.13;;;16.73;;
10090;SDS011;5084;51.386;6.778;2023-01-29T07:27:50;23.20;;;17.00;;
10090;SDS011;5084;51.386;6.778;2023-01-29T07:30:16;22.63;;;17.27;;
10090;SDS011;5084;51.386;6.778;2023-01-29T07:32:42;24.97;;;18.47;;
10090;SDS011;5084;51.386;6.778;2023-01-29T07:35:09;23.30;;;16.47;;
10090;SDS011;5084;51.386;6.778;2023-01-29T07:37:35;25.30;;;17.80;;
10090;SDS011;5084;51.386;6.778;2023-01-29T07:40:01;23.50;;;16.57;;
10090;SDS011;5084;51.386;6.778;2023-01-29T07:42:29;24.30;;;17.07;;
10090;SDS011;5084;51.386;6.778;2023-01-29T07:44:55;24.03;;;18.27;;
10090;SDS011;5084;51.386;6.778;2023-01-29T07:47:21;27.00;;;17.00;;
10090;SDS011;5084;51.386;6.778;2023-01-29T07:49:47;22.40;;;16.60;;
10090;SDS011;5084;51.386;6.778;2023-01-29T07:52:13;26.57;;;18.27;;
10090;SDS011;5084;51.386;6.778;2023-01-29T07:54:39;23.63;;;17.23;;
10090;SDS011;5084;51.386;6.778;2023-01-29T07:57:05;23.93;;;17.37;;
10090;SDS011;5084;51.386;6.778;2023-01-29T07:59:31;23.13;;;16.93;;
10090;SDS011;5084;51.386;6.778;2023-01-29T08:01:57;26.87;;;18.13;;
10090;SDS011;5084;51.386;6.778;2023-01-29T08:04:23;23.90;;;17.50;;
10090;SDS011;5084;51.386;6.778;2023-01-29T08:06:49;25.13;;;18.70;;
10090;SDS011;5084;51.386;6.778;2023-01-29T08:09:15;24.70;;;17.00;;
10090;SDS011;5084;51.386;6.778;2023-01-29T08:11:41;22.53;;;15.83;;
10090;SDS011;5084;51.386;6.778;2023-01-29T08:14:07;24.50;;;17.50;;
10090;SDS011;5084;51.386;6.778;2023-01-29T08:16:34;26.63;;;18.67;;
10090;SDS011;5084;51.386;6.778;2023-01-29T08:19:01;23.53;;;16.97;;
10090;SDS011;5084;51.386;6.778;2023-01-29T08:21:27;25.97;;;18.43;;
10090;SDS011;5084;51.386;6.778;2023-01-29T08:23:54;27.40;;;17.33;;
10090;SDS011;5084;51.386;6.778;2023-01-29T08:26:20;23.40;;;16.67;;
10090;SDS011;5084;51.386;6.778;2023-01-29T08:28:46;23.10;;;17.53;;
10090;SDS011;5084;51.386;6.778;2023-01-29T08:31:15;25.77;;;18.33;;
10090;SDS011;5084;51.386;6.778;2023-01-29T08:33:42;25.20;;;17.90;;
10090;SDS011;5084;51.386;6.778;2023-01-29T08:36:08;23.50;;;18.13;;
10090;SDS011;5084;51.386;6.778;2023-01-29T08:38:34;25.80;;;18.33;;
10090;SDS011;5084;51.386;6.778;2023-01-29T08:41:00;25.90;;;17.63;;
10090;SDS011;5084;51.386;6.778;2023-01-29T08:43:26;27.60;;;19.67;;
10090;SDS011;5084;51.386;6.778;2023-01-29T08:45:52;32.20;;;21.80;;
10090;SDS011;5084;51.386;6.778;2023-01-29T08:48:18;27.67;;;18.57;;
10090;SDS011;5084;51.386;6.778;2023-01-29T08:50:44;27.43;;;18.93;;
10090;SDS011;5084;51.386;6.778;2023-01-29T08:53:10;27.63;;;18.00;;
10090;SDS011;5084;51.386;6.778;2023-01-29T08:55:38;29.23;;;20.07;;
10090;SDS011;5084;51.386;6.778;2023-01-29T08:58:05;27.37;;;18.83;;
10090;SDS011;5084;51.386;6.778;2023-01-29T09:00:31;29.50;;;19.77;;
10090;SDS011;5084;51.386;6.778;2023-01-29T09:02:57;25.67;;;18.40;;
10090;SDS011;5084;51.386;6.778;2023-01-29T09:05:24;29.73;;;18.87;;
10090;SDS011;5084;51.386;6.778;2023-01-29T09:07:51;25.80;;;18.73;;
10090;SDS011;5084;51.386;6.778;2023-01-29T09:10:17;26.17;;;17.77;;
10090;SDS011;5084;51.386;6.778;2023-01-29T09:12:43;28.03;;;19.60;;
10090;SDS011;5084;51.386;6.778;2023-01-29T09:15:09;28.10;;;18.93;;
10090;SDS011;5084;51.386;6.778;2023-01-29T09:17:35;31.53;;;21.23;;
10090;SDS011;5084;51.386;6.778;2023-01-29T09:20:01;26.57;;;18.77;;
10090;SDS011;5084;51.386;6.778;2023-01-29T09:22:29;29.67;;;19.37;;
10090;SDS011;5084;51.386;6.778;2023-01-29T09:24:56;30.37;;;19.50;;
10090;SDS011;5084;51.386;6.778;2023-01-29T09:27:22;28.20;;;20.00;;
10090;SDS011;5084;51.386;6.778;2023-01-29T09:29:48;25.97;;;18.47;;
10090;SDS011;5084;51.386;6.778;2023-01-29T09:32:14;26.97;;;19.03;;
10090;SDS011;5084;51.386;6.778;2023-01-29T09:34:40;27.63;;;20.03;;
10090;SDS011;5084;51.386;6.778;2023-01-29T09:37:07;28.43;;;17.87;;
10090;SDS011;5084;51.386;6.778;2023-01-29T09:39:33;26.53;;;19.67;;
10090;SDS011;5084;51.386;6.778;2023-01-29T09:42:05;28.67;;;18.93;;
10090;SDS011;5084;51.386;6.778;2023-01-29T09:47:18;26.27;;;17.80;;
10090;SDS011;5084;51.386;6.778;2023-01-29T09:49:46;30.70;;;19.80;;
10090;SDS011;5084;51.386;6.778;2023-01-29T09:57:08;26.43;;;18.57;;
10090;SDS011;5084;51.386;6.778;2023-01-29T09:59:35;27.50;;;20.03;;
10090;SDS011;5084;51.386;6.778;2023-01-29T10:02:17;29.20;;;20.37;;
10090;SDS011;5084;51.386;6.778;2023-01-29T10:23:23;23.67;;;17.40;;
10090;SDS011;5084;51.386;6.778;2023-01-29T10:25:51;30.47;;;21.27;;
10090;SDS011;5084;51.386;6.778;2023-01-29T10:30:50;27.30;;;18.13;;
10090;SDS011;5084;51.386;6.778;2023-01-29T10:33:27;25.23;;;17.17;;
10090;SDS011;5084;51.386;6.778;2023-01-29T10:35:57;26.60;;;18.93;;
10090;SDS011;5084;51.386;6.778;2023-01-29T10:41:03;24.30;;;17.93;;
10090;SDS011;5084;51.386;6.778;2023-01-29T11:01:56;33.17;;;19.10;;
10090;SDS011;5084;51.386;6.778;2023-01-29T11:04:23;26.93;;;19.00;;
10090;SDS011;5084;51.386;6.778;2023-01-29T11:06:50;26.03;;;18.07;;
10090;SDS011;5084;51.386;6.778;2023-01-29T11:09:27;29.17;;;19.10;;
10090;SDS011;5084;51.386;6.778;2023-01-29T11:11:56;27.50;;;19.40;;
10090;SDS011;5084;51.386;6.778;2023-01-29T11:14:28;29.10;;;18.57;;
10090;SDS011;5084;51.386;6.778;2023-01-29T11:16:56;26.10;;;18.03;;
10090;SDS011;5084;51.386;6.778;2023-01-29T11:19:41;30.67;;;19.63;;
10090;SDS011;5084;51.386;6.778;2023-01-29T11:22:11;27.27;;;19.00;;
10090;SDS011;5084;51.386;6.778;2023-01-29T11:24:38;28.77;;;19.70;;
10090;SDS011;5084;51.386;6.778;2023-01-29T11:27:12;27.80;;;18.80;;
10090;SDS011;5084;51.386;6.778;2023-01-29T11:29:42;29.33;;;18.93;;
10090;SDS011;5084;51.386;6.778;2023-01-29T11:32:13;29.40;;;20.13;;
10090;SDS011;5084;51.386;6.778;2023-01-29T11:35:00;33.10;;;20.53;;
10090;SDS011;5084;51.386;6.778;2023-01-29T11:37:30;31.87;;;20.73;;
10090;SDS011;5084;51.386;6.778;2023-01-29T11:39:57;29.17;;;20.40;;
10090;SDS011;5084;51.386;6.778;2023-01-29T11:42:23;29.77;;;20.17;;
10090;SDS011;5084;51.386;6.778;2023-01-29T11:44:51;29.10;;;19.23;;
10090;SDS011;5084;51.386;6.778;2023-01-29T11:47:21;29.30;;;19.57;;
10090;SDS011;5084;51.386;6.778;2023-01-29T11:49:51;29.03;;;19.07;;
10090;SDS011;5084;51.386;6.778;2023-01-29T11:52:19;30.40;;;20.50;;
10090;SDS011;5084;51.386;6.778;2023-01-29T11:54:50;29.60;;;20.10;;
10090;SDS011;5084;51.386;6.778;2023-01-29T11:57:33;26.67;;;18.07;;
10090;SDS011;5084;51.386;6.778;2023-01-29T12:00:03;28.90;;;18.73;;
10090;SDS011;5084;51.386;6.778;2023-01-29T12:02:32;31.33;;;20.50;;
10090;SDS011;5084;51.386;6.778;2023-01-29T12:05:18;32.53;;;20.53;;
10090;SDS011;5084;51.386;6.778;2023-01-29T12:07:46;29.73;;;19.70;;
10090;SDS011;5084;51.386;6.778;2023-01-29T12:13:05;30.83;;;19.23;;
10090;SDS011;5084;51.386;6.778;2023-01-29T12:15:32;28.77;;;19.57;;
10090;SDS011;5084;51.386;6.778;2023-01-29T12:18:01;31.13;;;19.53;;
10090;SDS011;5084;51.386;6.778;2023-01-29T12:20:33;36.50;;;19.83;;
10090;SDS011;5084;51.386;6.778;2023-01-29T12:30:32;27.23;;;16.30;;
10090;SDS011;5084;51.386;6.778;2023-01-29T12:38:18;27.23;;;18.33;;
10090;SDS011;5084;51.386;6.778;2023-01-29T12:40:52;28.23;;;17.87;;
10090;SDS011;5084;51.386;6.778;2023-01-29T12:45:50;26.67;;;17.67;;
10090;SDS011;5084;51.386;6.778;2023-01-29T12:48:22;28.10;;;17.83;;
10090;SDS011;5084;51.386;6.778;2023-01-29T12:50:49;27.33;;;17.93;;
10090;SDS011;5084;51.386;6.778;2023-01-29T12:53:28;28.13;;;17.73;;
10090;SDS011;5084;51.386;6.778;2023-01-29T12:55:58;29.93;;;18.77;;
10090;SDS011;5084;51.386;6.778;2023-01-29T12:58:29;27.37;;;17.97;;
10090;SDS011;5084;51.386;6.778;2023-01-29T13:00:59;25.83;;;17.47;;
10090;SDS011;5084;51.386;6.778;2023-01-29T13:05:56;34.10;;;18.37;;
10090;SDS011;5084;51.386;6.778;2023-01-29T13:08:23;27.13;;;18.00;;
10090;SDS011;5084;51.386;6.778;2023-01-29T13:10:51;28.40;;;19.07;;
10090;SDS011;5084;51.386;6.778;2023-01-29T13:13:32;24.87;;;17.17;;
10090;SDS011;5084;51.386;6.778;2023-01-29T13:16:00;28.23;;;18.30;;
10090;SDS011;5084;51.386;6.778;2023-01-29T13:21:20;29.43;;;18.67;;
10090;SDS011;5084;51.386;6.778;2023-01-29T13:23:51;24.70;;;16.93;;
10090;SDS011;5084;51.386;6.778;2023-01-29T13:26:18;25.10;;;17.13;;
10090;SDS011;5084;51.386;6.778;2023-01-29T13:28:45;27.13;;;17.90;;
10090;SDS011;5084;51.386;6.778;2023-01-29T13:34:12;25.60;;;17.10;;
10090;SDS011;5084;51.386;6.778;2023-01-29T13:36:46;26.80;;;16.47;;
10090;SDS011;5084;51.386;6.778;2023-01-29T13:39:35;26.23;;;17.27;;
10090;SDS011;5084;51.386;6.778;2023-01-29T13:42:01;28.30;;;17.27;;
10090;SDS011;5084;51.386;6.778;2023-01-29T13:44:31;26.27;;;17.90;;
10090;SDS011;5084;51.386;6.778;2023-01-29T13:47:01;27.30;;;18.00;;
10090;SDS011;5084;51.386;6.778;2023-01-29T13:49:33;26.67;;;16.87;;
10090;SDS011;5084;51.386;6.778;2023-01-29T13:52:13;23.63;;;16.23;;
10090;SDS011;5084;51.386;6.778;2023-01-29T13:54:39;26.93;;;17.27;;
10090;SDS011;5084;51.386;6.778;2023-01-29T13:57:08;25.97;;;16.33;;
10090;SDS011;5084;51.386;6.778;2023-01-29T13:59:52;25.63;;;15.57;;
10090;SDS011;5084;51.386;6.778;2023-01-29T14:04:49;25.70;;;17.73;;
10090;SDS011;5084;51.386;6.778;2023-01-29T14:10:01;25.80;;;16.90;;
10090;SDS011;5084;51.386;6.778;2023-01-29T14:12:36;25.80;;;17.33;;
10090;SDS011;5084;51.386;6.778;2023-01-29T14:15:12;26.97;;;17.67;;
10090;SDS011;5084;51.386;6.778;2023-01-29T14:17:40;23.20;;;16.60;;
10090;SDS011;5084;51.386;6.778;2023-01-29T14:20:19;22.13;;;16.03;;
10090;SDS011;5084;51.386;6.778;2023-01-29T14:22:52;24.33;;;16.60;;
10090;SDS011;5084;51.386;6.778;2023-01-29T14:25:20;22.87;;;16.37;;
10090;SDS011;5084;51.386;6.778;2023-01-29T14:27:48;26.13;;;17.10;;
10090;SDS011;5084;51.386;6.778;2023-01-29T14:30:15;29.97;;;17.03;;
10090;SDS011;5084;51.386;6.778;2023-01-29T14:32:45;25.17;;;17.20;;
10090;SDS011;5084;51.386;6.778;2023-01-29T14:37:41;27.90;;;16.73;;
10090;SDS011;5084;51.386;6.778;2023-01-29T14:42:37;25.00;;;16.83;;
10090;SDS011;5084;51.386;6.778;2023-01-29T14:52:43;29.93;;;16.80;;
10090;SDS011;5084;51.386;6.778;2023-01-29T14:55:29;23.90;;;16.60;;
10090;SDS011;5084;51.386;6.778;2023-01-29T14:57:55;24.57;;;17.07;;
10090;SDS011;5084;51.386;6.778;2023-01-29T15:00:29;26.60;;;17.00;;
10090;SDS011;5084;51.386;6.778;2023-01-29T15:02:56;27.50;;;17.43;;
10090;SDS011;5084;51.386;6.778;2023-01-29T15:05:27;25.90;;;17.40;;
10090;SDS011;5084;51.386;6.778;2023-01-29T15:07:54;26.03;;;16.53;;
10090;SDS011;5084;51.386;6.778;2023-01-29T15:10:26;27.93;;;17.77;;
10090;SDS011;5084;51.386;6.778;2023-01-29T15:20:35;25.30;;;16.30;;
10090;SDS011;5084;51.386;6.778;2023-01-29T15:23:02;24.07;;;15.97;;
10090;SDS011;5084;51.386;6.778;2023-01-29T15:25:30;24.90;;;16.47;;
10090;SDS011;5084;51.386;6.778;2023-01-29T15:27:59;23.97;;;16.07;;
10090;SDS011;5084;51.386;6.778;2023-01-29T15:30:28;26.67;;;16.40;;
10090;SDS011;5084;51.386;6.778;2023-01-29T15:32:56;23.73;;;15.70;;
10090;SDS011;5084;51.386;6.778;2023-01-29T15:35:30;25.37;;;17.33;;
10090;SDS011;5084;51.386;6.778;2023-01-29T15:38:00;22.53;;;15.60;;
10090;SDS011;5084;51.386;6.778;2023-01-29T15:40:26;23.20;;;14.00;;
10090;SDS011;5084;51.386;6.778;2023-01-29T15:42:52;22.47;;;14.20;;
10090;SDS011;5084;51.386;6.778;2023-01-29T15:45:27;24.20;;;14.67;;
10090;SDS011;5084;51.386;6.778;2023-01-29T15:47:56;25.33;;;15.77;;
10090;SDS011;5084;51.386;6.778;2023-01-29T15:50:23;20.13;;;14.33;;
10090;SDS011;5084;51.386;6.778;2023-01-29T15:52:50;20.10;;;14.00;;
10090;SDS011;5084;51.386;6.778;2023-01-29T15:55:16;21.07;;;14.77;;
10090;SDS011;5084;51.386;6.778;2023-01-29T15:57:44;20.83;;;13.87;;
10090;SDS011;5084;51.386;6.778;2023-01-29T16:00:20;21.73;;;14.33;;
10090;SDS011;5084;51.386;6.778;2023-01-29T16:02:46;22.60;;;13.70;;
10090;SDS011;5084;51.386;6.778;2023-01-29T16:05:14;21.27;;;14.33;;
10090;SDS011;5084;51.386;6.778;2023-01-29T16:07:41;19.77;;;14.43;;
10090;SDS011;5084;51.386;6.778;2023-01-29T16:10:13;20.53;;;13.50;;
10090;SDS011;5084;51.386;6.778;2023-01-29T16:12:39;18.47;;;13.43;;
10090;SDS011;5084;51.386;6.778;2023-01-29T16:15:06;18.40;;;12.40;;
10090;SDS011;5084;51.386;6.778;2023-01-29T16:17:38;18.30;;;12.63;;
10090;SDS011;5084;51.386;6.778;2023-01-29T16:20:06;19.77;;;13.80;;
10090;SDS011;5084;51.386;6.778;2023-01-29T16:22:33;20.63;;;12.90;;
10090;SDS011;5084;51.386;6.778;2023-01-29T16:25:05;20.40;;;14.27;;
10090;SDS011;5084;51.386;6.778;2023-01-29T16:27:32;19.23;;;12.93;;
10090;SDS011;5084;51.386;6.778;2023-01-29T16:29:59;17.83;;;13.10;;
10090;SDS011;5084;51.386;6.778;2023-01-29T16:32:28;16.93;;;12.17;;
10090;SDS011;5084;51.386;6.778;2023-01-29T16:34:56;18.00;;;12.70;;
10090;SDS011;5084;51.386;6.778;2023-01-29T16:37:30;18.70;;;12.37;;
10090;SDS011;5084;51.386;6.778;2023-01-29T16:40:00;17.63;;;12.50;;
10090;SDS011;5084;51.386;6.778;2023-01-29T16:42:35;17.03;;;12.10;;
10090;SDS011;5084;51.386;6.778;2023-01-29T16:45:44;19.50;;;12.63;;
10090;SDS011;5084;51.386;6.778;2023-01-29T16:48:19;22.13;;;13.13;;
10090;SDS011;5084;51.386;6.778;2023-01-29T16:50:44;18.67;;;12.13;;
10090;SDS011;5084;51.386;6.778;2023-01-29T16:53:11;18.60;;;12.23;;
10090;SDS011;5084;51.386;6.778;2023-01-29T16:55:38;18.13;;;12.70;;
10090;SDS011;5084;51.386;6.778;2023-01-29T16:58:11;19.60;;;13.13;;
10090;SDS011;5084;51.386;6.778;2023-01-29T17:00:40;16.03;;;11.03;;
10090;SDS011;5084;51.386;6.778;2023-01-29T17:03:08;17.80;;;11.67;;
10090;SDS011;5084;51.386;6.778;2023-01-29T17:05:36;17.63;;;12.53;;
10090;SDS011;5084;51.386;6.778;2023-01-29T17:08:03;18.27;;;12.93;;
10090;SDS011;5084;51.386;6.778;2023-01-29T17:10:30;17.77;;;12.03;;
10090;SDS011;5084;51.386;6.778;2023-01-29T17:13:00;19.30;;;13.27;;
10090;SDS011;5084;51.386;6.778;2023-01-29T17:17:54;19.27;;;12.83;;